sensor_id;sensor_type;location;lat;lon;timestamp;pressure;altitude;pressure_sealevel;temperature;humidity
57801;BME280;43627;42.728;23.256;2023-04-20T00:00:35;94637.59;;;8.72;100.00
57801;BME280;43627;42.728;23.256;2023-04-20T00:03:02;94643.94;;;8.69;100.00
57801;BME280;43627;42.728;23.256;2023-04-20T00:05:29;94636.25;;;8.67;100.00
57801;BME280;43627;42.728;23.256;2023-04-20T00:07:57;94627.94;;;8.62;100.00
57801;BME280;43627;42.728;23.256;2023-04-20T00:10:24;94635.66;;;8.63;100.00
57801;BME280;43627;42.728;23.256;2023-04-20T00:12:51;94628.84;;;8.68;100.00
57801;BME280;43627;42.728;23.256;2023-04-20T00:15:18;94638.50;;;8.69;100.00
57801;BME280;43627;42.728;23.256;2023-04-20T00:17:44;94630.78;;;8.76;100.00
57801;BME280;43627;42.728;23.256;2023-04-20T00:20:12;94638.97;;;8.67;100.00
57801;BME280;43627;42.728;23.256;2023-04-20T00:22:38;94630.38;;;8.59;100.00
57801;BME280;43627;42.728;23.256;2023-04-20T00:25:05;94634.44;;;8.64;100.00
57801;BME280;43627;42.728;23.256;2023-04-20T00:27:32;94628.69;;;8.62;100.00
57801;BME280;43627;42.728;23.256;2023-04-20T00:29:59;94632.66;;;8.52;100.00
57801;BME280;43627;42.728;23.256;2023-04-20T00:32:26;94631.28;;;8.56;100.00
57801;BME280;43627;42.728;23.256;2023-04-20T00:34:53;94628.28;;;8.54;100.00
57801;BME280;43627;42.728;23.256;2023-04-20T00:37:20;94630.69;;;8.52;100.00
57801;BME280;43627;42.728;23.256;2023-04-20T00:39:47;94632.97;;;8.54;100.00
57801;BME280;43627;42.728;23.256;2023-04-20T00:42:14;94631.59;;;8.58;100.00
57801;BME280;43627;42.728;23.256;2023-04-20T00:44:40;94620.72;;;8.49;100.00
57801;BME280;43627;42.728;23.256;2023-04-20T00:47:07;94633.84;;;8.51;100.00
57801;BME280;43627;42.728;23.256;2023-04-20T00:49:33;94631.31;;;8.47;100.00
57801;BME280;43627;42.728;23.256;2023-04-20T00:52:00;94610.75;;;8.55;100.00
57801;BME280;43627;42.728;23.256;2023-04-20T00:54:27;94619.53;;;8.41;100.00
57801;BME280;43627;42.728;23.256;2023-04-20T00:56:55;94621.97;;;8.39;100.00
57801;BME280;43627;42.728;23.256;2023-04-20T00:59:23;94616.06;;;8.50;100.00
57801;BME280;43627;42.728;23.256;2023-04-20T01:01:50;94621.38;;;8.44;100.00
57801;BME280;43627;42.728;23.256;2023-04-20T01:04:17;94614.84;;;8.42;100.00
57801;BME280;43627;42.728;23.256;2023-04-20T01:06:44;94614.72;;;8.36;100.00
57801;BME280;43627;42.728;23.256;2023-04-20T01:09:11;94607.63;;;8.20;100.00
57801;BME280;43627;42.728;23.256;2023-04-20T01:11:38;94614.41;;;8.34;100.00
57801;BME280;43627;42.728;23.256;2023-04-20T01:14:05;94622.88;;;8.36;100.00
57801;BME280;43627;42.728;23.256;2023-04-20T01:16:32;94621.94;;;8.30;100.00
57801;BME280;43627;42.728;23.256;2023-04-20T01:19:02;94617.25;;;8.30;100.00
57801;BME280;43627;42.728;23.256;2023-04-20T01:21:29;94611.25;;;8.36;100.00
57801;BME280;43627;42.728;23.256;2023-04-20T01:23:56;94591.63;;;8.22;100.00
57801;BME280;43627;42.728;23.256;2023-04-20T01:26:23;94606.69;;;8.32;100.00
57801;BME280;43627;42.728;23.256;2023-04-20T01:28:51;94610.78;;;8.28;100.00
57801;BME280;43627;42.728;23.256;2023-04-20T01:31:18;94597.69;;;8.17;100.00
57801;BME280;43627;42.728;23.256;2023-04-20T01:33:45;94605.06;;;8.26;100.00
57801;BME280;43627;42.728;23.256;2023-04-20T01:36:12;94606.13;;;8.19;100.00
57801;BME280;43627;42.728;23.256;2023-04-20T01:38:39;94608.09;;;8.19;100.00
57801;BME280;43627;42.728;23.256;2023-04-20T01:41:08;94603.88;;;8.18;100.00
57801;BME280;43627;42.728;23.256;2023-04-20T01:43:35;94596.59;;;8.15;100.00
57801;BME280;43627;42.728;23.256;2023-04-20T01:46:03;94593.88;;;8.15;100.00
57801;BME280;43627;42.728;23.256;2023-04-20T01:48:30;94590.41;;;8.14;100.00
57801;BME280;43627;42.728;23.256;2023-04-20T01:50:57;94596.31;;;8.13;100.00
57801;BME280;43627;42.728;23.256;2023-04-20T01:53:23;94589.66;;;8.14;100.00
57801;BME280;43627;42.728;23.256;2023-04-20T01:55:53;94598.91;;;8.07;100.00
57801;BME280;43627;42.728;23.256;2023-04-20T01:58:20;94594.06;;;8.02;100.00
57801;BME280;43627;42.728;23.256;2023-04-20T02:00:47;94592.25;;;7.99;100.00
57801;BME280;43627;42.728;23.256;2023-04-20T02:03:13;94581.25;;;8.02;100.00
57801;BME280;43627;42.728;23.256;2023-04-20T02:05:40;94586.97;;;8.05;100.00
57801;BME280;43627;42.728;23.256;2023-04-20T02:08:07;94583.97;;;8.02;100.00
57801;BME280;43627;42.728;23.256;2023-04-20T02:10:34;94591.03;;;8.09;100.00
57801;BME280;43627;42.728;23.256;2023-04-20T02:13:01;94594.69;;;8.06;100.00
57801;BME280;43627;42.728;23.256;2023-04-20T02:15:28;94588.47;;;8.15;100.00
57801;BME280;43627;42.728;23.256;2023-04-20T02:17:54;94591.63;;;8.13;100.00
57801;BME280;43627;42.728;23.256;2023-04-20T02:20:21;94586.97;;;8.05;100.00
57801;BME280;43627;42.728;23.256;2023-04-20T02:22:48;94597.50;;;8.21;100.00
57801;BME280;43627;42.728;23.256;2023-04-20T02:25:14;94592.84;;;8.12;100.00
57801;BME280;43627;42.728;23.256;2023-04-20T02:27:41;94575.97;;;8.08;100.00
57801;BME280;43627;42.728;23.256;2023-04-20T02:30:08;94585.31;;;8.07;100.00
57801;BME280;43627;42.728;23.256;2023-04-20T02:32:36;94598.13;;;8.16;100.00
57801;BME280;43627;42.728;23.256;2023-04-20T02:35:03;94599.03;;;8.22;100.00
57801;BME280;43627;42.728;23.256;2023-04-20T02:37:30;94601.72;;;8.22;100.00
57801;BME280;43627;42.728;23.256;2023-04-20T02:39:57;94595.09;;;8.23;100.00
57801;BME280;43627;42.728;23.256;2023-04-20T02:42:24;94596.94;;;8.17;100.00
57801;BME280;43627;42.728;23.256;2023-04-20T02:44:51;94570.66;;;8.05;100.00
57801;BME280;43627;42.728;23.256;2023-04-20T02:47:18;94592.38;;;8.14;100.00
57801;BME280;43627;42.728;23.256;2023-04-20T02:49:48;94591.50;;;8.17;100.00
57801;BME280;43627;42.728;23.256;2023-04-20T02:52:14;94593.28;;;8.20;100.00
57801;BME280;43627;42.728;23.256;2023-04-20T02:54:41;94587.09;;;8.19;100.00
57801;BME280;43627;42.728;23.256;2023-04-20T02:57:08;94588.78;;;8.17;100.00
57801;BME280;43627;42.728;23.256;2023-04-20T02:59:37;94596.16;;;8.25;100.00
57801;BME280;43627;42.728;23.256;2023-04-20T03:02:04;94589.66;;;8.23;100.00
57801;BME280;43627;42.728;23.256;2023-04-20T03:04:30;94594.78;;;8.30;100.00
57801;BME280;43627;42.728;23.256;2023-04-20T03:06:57;94599.00;;;8.31;100.00
57801;BME280;43627;42.728;23.256;2023-04-20T03:09:25;94592.06;;;8.30;100.00
57801;BME280;43627;42.728;23.256;2023-04-20T03:11:52;94591.16;;;8.33;100.00
57801;BME280;43627;42.728;23.256;2023-04-20T03:14:19;94590.41;;;8.32;100.00
57801;BME280;43627;42.728;23.256;2023-04-20T03:16:46;94583.91;;;8.30;100.00
57801;BME280;43627;42.728;23.256;2023-04-20T03:19:16;94591.31;;;8.29;100.00
57801;BME280;43627;42.728;23.256;2023-04-20T03:21:46;94578.97;;;8.19;100.00
57801;BME280;43627;42.728;23.256;2023-04-20T03:24:13;94599.31;;;8.42;100.00
57801;BME280;43627;42.728;23.256;2023-04-20T03:26:39;94600.66;;;8.47;100.00
57801;BME280;43627;42.728;23.256;2023-04-20T03:29:06;94604.13;;;8.47;100.00
57801;BME280;43627;42.728;23.256;2023-04-20T03:31:33;94603.69;;;8.49;100.00
57801;BME280;43627;42.728;23.256;2023-04-20T03:34:00;94598.56;;;8.42;100.00
57801;BME280;43627;42.728;23.256;2023-04-20T03:36:27;94604.75;;;8.42;100.00
57801;BME280;43627;42.728;23.256;2023-04-20T03:38:53;94604.44;;;8.40;100.00
57801;BME280;43627;42.728;23.256;2023-04-20T03:41:20;94598.09;;;8.43;100.00
57801;BME280;43627;42.728;23.256;2023-04-20T03:43:47;94593.28;;;8.38;100.00
57801;BME280;43627;42.728;23.256;2023-04-20T03:46:14;94593.88;;;8.33;100.00
57801;BME280;43627;42.728;23.256;2023-04-20T03:48:41;94590.41;;;8.42;100.00
57801;BME280;43627;42.728;23.256;2023-04-20T03:51:08;94603.09;;;8.45;100.00
57801;BME280;43627;42.728;23.256;2023-04-20T03:53:34;94594.50;;;8.37;100.00
57801;BME280;43627;42.728;23.256;2023-04-20T03:56:04;94597.97;;;8.38;100.00
57801;BME280;43627;42.728;23.256;2023-04-20T03:58:31;94605.66;;;8.39;100.00
57801;BME280;43627;42.728;23.256;2023-04-20T04:01:04;94600.81;;;8.43;100.00
57801;BME280;43627;42.728;23.256;2023-04-20T04:03:35;94596.59;;;8.42;100.00
57801;BME280;43627;42.728;23.256;2023-04-20T04:06:02;94602.19;;;8.48;100.00
57801;BME280;43627;42.728;23.256;2023-04-20T04:08:29;94596.56;;;8.51;100.00
57801;BME280;43627;42.728;23.256;2023-04-20T04:10:58;94592.34;;;8.50;100.00
57801;BME280;43627;42.728;23.256;2023-04-20T04:13:25;94604.69;;;8.61;100.00
57801;BME280;43627;42.728;23.256;2023-04-20T04:15:52;94610.16;;;8.51;100.00
57801;BME280;43627;42.728;23.256;2023-04-20T04:18:20;94613.97;;;8.45;100.00
57801;BME280;43627;42.728;23.256;2023-04-20T04:20:47;94608.06;;;8.46;100.00
57801;BME280;43627;42.728;23.256;2023-04-20T04:23:14;94615.94;;;8.44;100.00
57801;BME280;43627;42.728;23.256;2023-04-20T04:25:40;94597.50;;;8.48;100.00
57801;BME280;43627;42.728;23.256;2023-04-20T04:28:07;94609.84;;;8.58;100.00
57801;BME280;43627;42.728;23.256;2023-04-20T04:30:34;94604.44;;;8.49;100.00
57801;BME280;43627;42.728;23.256;2023-04-20T04:33:01;94601.41;;;8.56;100.00
57801;BME280;43627;42.728;23.256;2023-04-20T04:35:30;94612.56;;;8.58;100.00
57801;BME280;43627;42.728;23.256;2023-04-20T04:37:58;94618.88;;;8.74;100.00
57801;BME280;43627;42.728;23.256;2023-04-20T04:40:26;94609.66;;;8.71;100.00
57801;BME280;43627;42.728;23.256;2023-04-20T04:42:52;94610.06;;;8.79;100.00
57801;BME280;43627;42.728;23.256;2023-04-20T04:45:21;94619.16;;;8.76;100.00
57801;BME280;43627;42.728;23.256;2023-04-20T04:47:50;94618.53;;;8.81;100.00
57801;BME280;43627;42.728;23.256;2023-04-20T04:50:20;94627.56;;;8.87;100.00
57801;BME280;43627;42.728;23.256;2023-04-20T04:52:47;94623.19;;;8.90;100.00
57801;BME280;43627;42.728;23.256;2023-04-20T04:55:14;94622.25;;;9.02;100.00
57801;BME280;43627;42.728;23.256;2023-04-20T04:57:42;94627.31;;;9.09;100.00
57801;BME280;43627;42.728;23.256;2023-04-20T05:00:09;94635.50;;;9.09;100.00
57801;BME280;43627;42.728;23.256;2023-04-20T05:02:37;94635.81;;;9.11;100.00
57801;BME280;43627;42.728;23.256;2023-04-20T05:05:04;94640.13;;;9.18;100.00
57801;BME280;43627;42.728;23.256;2023-04-20T05:07:35;94639.38;;;9.17;100.00
57801;BME280;43627;42.728;23.256;2023-04-20T05:10:01;94642.00;;;9.11;100.00
57801;BME280;43627;42.728;23.256;2023-04-20T05:12:28;94645.03;;;9.04;100.00
57801;BME280;43627;42.728;23.256;2023-04-20T05:14:55;94642.00;;;9.11;100.00
57801;BME280;43627;42.728;23.256;2023-04-20T05:17:21;94637.41;;;9.18;100.00
57801;BME280;43627;42.728;23.256;2023-04-20T05:19:48;94629.34;;;8.99;100.00
57801;BME280;43627;42.728;23.256;2023-04-20T05:22:15;94632.94;;;9.05;100.00
57801;BME280;43627;42.728;23.256;2023-04-20T05:24:42;94631.31;;;8.99;100.00
57801;BME280;43627;42.728;23.256;2023-04-20T05:27:09;94643.22;;;9.10;100.00
57801;BME280;43627;42.728;23.256;2023-04-20T05:29:37;94638.34;;;9.14;100.00
57801;BME280;43627;42.728;23.256;2023-04-20T05:32:04;94647.25;;;9.15;100.00
57801;BME280;43627;42.728;23.256;2023-04-20T05:34:31;94629.44;;;9.14;100.00
57801;BME280;43627;42.728;23.256;2023-04-20T05:36:57;94641.38;;;9.07;100.00
57801;BME280;43627;42.728;23.256;2023-04-20T05:39:24;94629.72;;;9.16;100.00
57801;BME280;43627;42.728;23.256;2023-04-20T05:41:51;94647.88;;;9.19;100.00
57801;BME280;43627;42.728;23.256;2023-04-20T05:44:18;94642.06;;;9.26;100.00
57801;BME280;43627;42.728;23.256;2023-04-20T05:46:45;94649.00;;;9.27;100.00
57801;BME280;43627;42.728;23.256;2023-04-20T05:49:12;94639.53;;;9.23;100.00
57801;BME280;43627;42.728;23.256;2023-04-20T05:51:39;94650.38;;;9.32;100.00
57801;BME280;43627;42.728;23.256;2023-04-20T05:54:05;94639.31;;;9.35;100.00
57801;BME280;43627;42.728;23.256;2023-04-20T05:56:32;94639.91;;;9.39;100.00
57801;BME280;43627;42.728;23.256;2023-04-20T05:58:59;94648.44;;;9.47;100.00
57801;BME280;43627;42.728;23.256;2023-04-20T06:01:26;94652.41;;;9.46;100.00
57801;BME280;43627;42.728;23.256;2023-04-20T06:03:53;94646.63;;;9.53;100.00
57801;BME280;43627;42.728;23.256;2023-04-20T06:06:20;94646.63;;;9.53;100.00
57801;BME280;43627;42.728;23.256;2023-04-20T06:08:46;94643.19;;;9.43;100.00
57801;BME280;43627;42.728;23.256;2023-04-20T06:11:13;94627.91;;;9.22;100.00
57801;BME280;43627;42.728;23.256;2023-04-20T06:13:40;94655.38;;;9.57;100.00
57801;BME280;43627;42.728;23.256;2023-04-20T06:16:07;94643.63;;;9.51;100.00
57801;BME280;43627;42.728;23.256;2023-04-20T06:18:36;94647.25;;;9.48;100.00
57801;BME280;43627;42.728;23.256;2023-04-20T06:21:03;94645.25;;;9.58;100.00
57801;BME280;43627;42.728;23.256;2023-04-20T06:23:29;94647.31;;;9.63;100.00
57801;BME280;43627;42.728;23.256;2023-04-20T06:25:56;94640.78;;;9.69;100.00
57801;BME280;43627;42.728;23.256;2023-04-20T06:28:23;94653.41;;;9.82;100.00
57801;BME280;43627;42.728;23.256;2023-04-20T06:30:49;94661.75;;;9.78;100.00
57801;BME280;43627;42.728;23.256;2023-04-20T06:33:16;94662.84;;;9.71;100.00
57801;BME280;43627;42.728;23.256;2023-04-20T06:35:43;94656.41;;;9.84;100.00
57801;BME280;43627;42.728;23.256;2023-04-20T06:38:10;94654.56;;;9.90;100.00
57801;BME280;43627;42.728;23.256;2023-04-20T06:40:36;94659.19;;;9.74;100.00
57801;BME280;43627;42.728;23.256;2023-04-20T06:43:03;94662.56;;;9.69;100.00
57801;BME280;43627;42.728;23.256;2023-04-20T06:45:30;94660.03;;;9.57;100.00
57801;BME280;43627;42.728;23.256;2023-04-20T06:47:59;94668.91;;;9.42;100.00
57801;BME280;43627;42.728;23.256;2023-04-20T06:50:26;94664.22;;;9.43;100.00
57801;BME280;43627;42.728;23.256;2023-04-20T06:52:53;94675.09;;;9.43;100.00
57801;BME280;43627;42.728;23.256;2023-04-20T06:55:19;94677.19;;;9.48;100.00
57801;BME280;43627;42.728;23.256;2023-04-20T06:57:46;94651.44;;;9.25;100.00
57801;BME280;43627;42.728;23.256;2023-04-20T07:00:14;94667.41;;;9.41;100.00
57801;BME280;43627;42.728;23.256;2023-04-20T07:02:45;94665.50;;;9.57;100.00
57801;BME280;43627;42.728;23.256;2023-04-20T07:05:14;94672.84;;;9.65;100.00
57801;BME280;43627;42.728;23.256;2023-04-20T07:07:41;94677.81;;;9.76;100.00
57801;BME280;43627;42.728;23.256;2023-04-20T07:10:10;94679.94;;;9.96;100.00
57801;BME280;43627;42.728;23.256;2023-04-20T07:12:37;94673.78;;;10.10;100.00
57801;BME280;43627;42.728;23.256;2023-04-20T07:15:08;94673.91;;;10.16;100.00
57801;BME280;43627;42.728;23.256;2023-04-20T07:17:35;94677.94;;;10.20;100.00
57801;BME280;43627;42.728;23.256;2023-04-20T07:20:02;94678.09;;;10.26;100.00
57801;BME280;43627;42.728;23.256;2023-04-20T07:22:35;94673.13;;;10.39;100.00
57801;BME280;43627;42.728;23.256;2023-04-20T07:25:04;94678.53;;;10.63;100.00
57801;BME280;43627;42.728;23.256;2023-04-20T07:27:35;94677.09;;;10.68;100.00
57801;BME280;43627;42.728;23.256;2023-04-20T07:30:03;94673.72;;;10.73;100.00
57801;BME280;43627;42.728;23.256;2023-04-20T07:32:35;94677.53;;;10.51;100.00
57801;BME280;43627;42.728;23.256;2023-04-20T07:35:02;94669.59;;;10.77;100.00
57801;BME280;43627;42.728;23.256;2023-04-20T07:37:30;94682.00;;;10.78;100.00
57801;BME280;43627;42.728;23.256;2023-04-20T07:40:00;94679.44;;;10.90;100.00
57801;BME280;43627;42.728;23.256;2023-04-20T07:42:27;94669.84;;;11.24;100.00
57801;BME280;43627;42.728;23.256;2023-04-20T07:44:55;94671.00;;;11.52;100.00
57801;BME280;43627;42.728;23.256;2023-04-20T07:47:21;94674.78;;;11.90;100.00
57801;BME280;43627;42.728;23.256;2023-04-20T07:49:48;94671.41;;;11.80;97.47
57801;BME280;43627;42.728;23.256;2023-04-20T07:52:15;94682.56;;;11.62;99.62
57801;BME280;43627;42.728;23.256;2023-04-20T07:54:46;94677.53;;;11.40;96.73
57801;BME280;43627;42.728;23.256;2023-04-20T07:57:13;94679.16;;;11.17;100.00
57801;BME280;43627;42.728;23.256;2023-04-20T07:59:40;94674.16;;;11.30;99.13
57801;BME280;43627;42.728;23.256;2023-04-20T08:02:07;94676.25;;;11.56;100.00
57801;BME280;43627;42.728;23.256;2023-04-20T08:04:35;94668.72;;;11.30;96.90
57801;BME280;43627;42.728;23.256;2023-04-20T08:07:03;94660.16;;;11.23;100.00
57801;BME280;43627;42.728;23.256;2023-04-20T08:09:30;94673.47;;;11.35;100.00
57801;BME280;43627;42.728;23.256;2023-04-20T08:11:57;94679.59;;;11.45;100.00
57801;BME280;43627;42.728;23.256;2023-04-20T08:14:24;94675.94;;;11.33;98.49
57801;BME280;43627;42.728;23.256;2023-04-20T08:16:50;94686.38;;;11.50;91.83
57801;BME280;43627;42.728;23.256;2023-04-20T08:19:17;94653.94;;;11.22;90.73
57801;BME280;43627;42.728;23.256;2023-04-20T08:21:44;94686.69;;;11.22;93.13
57801;BME280;43627;42.728;23.256;2023-04-20T08:24:11;94678.34;;;11.11;93.29
57801;BME280;43627;42.728;23.256;2023-04-20T08:26:38;94686.78;;;11.28;92.64
57801;BME280;43627;42.728;23.256;2023-04-20T08:29:06;94690.28;;;11.28;93.58
57801;BME280;43627;42.728;23.256;2023-04-20T08:31:32;94674.06;;;11.39;90.48
57801;BME280;43627;42.728;23.256;2023-04-20T08:33:59;94693.47;;;11.12;92.51
57801;BME280;43627;42.728;23.256;2023-04-20T08:36:26;94688.41;;;11.05;94.57
57801;BME280;43627;42.728;23.256;2023-04-20T08:39:05;94677.66;;;11.16;95.95
57801;BME280;43627;42.728;23.256;2023-04-20T08:41:32;94691.97;;;11.11;94.47
57801;BME280;43627;42.728;23.256;2023-04-20T08:43:59;94679.09;;;10.97;90.78
57801;BME280;43627;42.728;23.256;2023-04-20T08:46:26;94688.78;;;10.83;93.16
57801;BME280;43627;42.728;23.256;2023-04-20T08:48:54;94684.75;;;10.93;94.83
57801;BME280;43627;42.728;23.256;2023-04-20T08:51:22;94678.59;;;10.98;96.54
57801;BME280;43627;42.728;23.256;2023-04-20T08:53:50;94677.09;;;10.97;95.34
57801;BME280;43627;42.728;23.256;2023-04-20T08:56:16;94674.00;;;10.90;96.05
57801;BME280;43627;42.728;23.256;2023-04-20T08:58:43;94684.91;;;10.90;96.31
57801;BME280;43627;42.728;23.256;2023-04-20T09:01:11;94684.38;;;11.00;95.09
57801;BME280;43627;42.728;23.256;2023-04-20T09:03:42;94686.78;;;11.28;93.37
57801;BME280;43627;42.728;23.256;2023-04-20T09:06:16;94684.59;;;11.32;88.83
57801;BME280;43627;42.728;23.256;2023-04-20T09:08:44;94676.03;;;11.39;89.75
57801;BME280;43627;42.728;23.256;2023-04-20T09:11:21;94691.44;;;11.57;88.07
57801;BME280;43627;42.728;23.256;2023-04-20T09:16:25;94688.34;;;11.84;86.85
57801;BME280;43627;42.728;23.256;2023-04-20T09:18:52;94693.03;;;11.98;85.61
57801;BME280;43627;42.728;23.256;2023-04-20T09:21:19;94669.44;;;12.01;86.31
57801;BME280;43627;42.728;23.256;2023-04-20T09:24:01;94680.72;;;12.29;82.97
57801;BME280;43627;42.728;23.256;2023-04-20T09:26:32;94676.69;;;12.45;84.62
57801;BME280;43627;42.728;23.256;2023-04-20T09:29:03;94671.59;;;12.84;81.70
57801;BME280;43627;42.728;23.256;2023-04-20T09:31:30;94675.25;;;12.75;75.84
57801;BME280;43627;42.728;23.256;2023-04-20T09:34:02;94668.69;;;12.67;77.37
57801;BME280;43627;42.728;23.256;2023-04-20T09:36:43;94660.22;;;12.91;79.13
57801;BME280;43627;42.728;23.256;2023-04-20T09:39:15;94650.53;;;12.96;74.85
57801;BME280;43627;42.728;23.256;2023-04-20T09:41:43;94667.38;;;12.88;72.29
57801;BME280;43627;42.728;23.256;2023-04-20T09:44:11;94666.38;;;12.86;74.99
57801;BME280;43627;42.728;23.256;2023-04-20T09:46:39;94666.63;;;13.14;73.50
57801;BME280;43627;42.728;23.256;2023-04-20T09:49:08;94663.63;;;13.12;74.59
57801;BME280;43627;42.728;23.256;2023-04-20T09:51:39;94650.47;;;13.16;69.62
57801;BME280;43627;42.728;23.256;2023-04-20T09:54:07;94658.19;;;13.49;71.22
57801;BME280;43627;42.728;23.256;2023-04-20T09:56:34;94662.91;;;13.91;70.30
57801;BME280;43627;42.728;23.256;2023-04-20T09:59:01;94667.81;;;14.24;66.97
57801;BME280;43627;42.728;23.256;2023-04-20T10:01:30;94664.25;;;14.07;63.29
57801;BME280;43627;42.728;23.256;2023-04-20T10:04:01;94642.03;;;13.94;64.53
57801;BME280;43627;42.728;23.256;2023-04-20T10:06:32;94637.66;;;14.30;64.60
57801;BME280;43627;42.728;23.256;2023-04-20T10:09:03;94647.47;;;14.48;64.51
57801;BME280;43627;42.728;23.256;2023-04-20T10:11:37;94645.63;;;14.28;64.06
57801;BME280;43627;42.728;23.256;2023-04-20T10:14:23;94655.22;;;13.95;63.00
57801;BME280;43627;42.728;23.256;2023-04-20T10:17:02;94632.06;;;13.54;66.61
57801;BME280;43627;42.728;23.256;2023-04-20T10:19:40;94641.88;;;13.29;67.01
57801;BME280;43627;42.728;23.256;2023-04-20T10:22:09;94645.28;;;13.18;69.12
57801;BME280;43627;42.728;23.256;2023-04-20T10:24:38;94643.69;;;13.37;68.32
57801;BME280;43627;42.728;23.256;2023-04-20T10:27:16;94636.41;;;13.29;71.76
57801;BME280;43627;42.728;23.256;2023-04-20T10:29:43;94638.44;;;13.34;72.03
57801;BME280;43627;42.728;23.256;2023-04-20T10:32:26;94636.06;;;13.53;68.06
57801;BME280;43627;42.728;23.256;2023-04-20T10:35:01;94646.72;;;13.45;66.58
57801;BME280;43627;42.728;23.256;2023-04-20T10:37:28;94632.34;;;13.19;67.07
57801;BME280;43627;42.728;23.256;2023-04-20T10:39:55;94632.31;;;12.87;71.04
57801;BME280;43627;42.728;23.256;2023-04-20T10:42:22;94633.19;;;13.04;71.56
57801;BME280;43627;42.728;23.256;2023-04-20T10:44:50;94638.16;;;13.32;69.67
57801;BME280;43627;42.728;23.256;2023-04-20T10:47:25;94634.22;;;13.81;68.23
57801;BME280;43627;42.728;23.256;2023-04-20T10:49:52;94609.44;;;14.13;65.41
57801;BME280;43627;42.728;23.256;2023-04-20T10:52:37;94629.66;;;14.15;62.31
57801;BME280;43627;42.728;23.256;2023-04-20T10:55:05;94628.69;;;14.24;63.27
57801;BME280;43627;42.728;23.256;2023-04-20T10:57:35;94624.16;;;14.15;61.83
57801;BME280;43627;42.728;23.256;2023-04-20T11:00:14;94640.53;;;13.98;60.66
57801;BME280;43627;42.728;23.256;2023-04-20T11:02:49;94628.94;;;13.72;61.46
57801;BME280;43627;42.728;23.256;2023-04-20T11:05:17;94621.81;;;13.86;60.72
57801;BME280;43627;42.728;23.256;2023-04-20T11:07:58;94614.41;;;14.03;60.26
57801;BME280;43627;42.728;23.256;2023-04-20T11:10:37;94602.50;;;14.28;60.37
57801;BME280;43627;42.728;23.256;2023-04-20T11:13:05;94612.84;;;14.67;59.01
57801;BME280;43627;42.728;23.256;2023-04-20T11:15:33;94612.88;;;14.78;60.26
57801;BME280;43627;42.728;23.256;2023-04-20T11:18:08;94607.63;;;15.20;56.60
57801;BME280;43627;42.728;23.256;2023-04-20T11:20:35;94590.63;;;15.27;56.56
57801;BME280;43627;42.728;23.256;2023-04-20T11:23:02;94589.34;;;15.56;58.46
57801;BME280;43627;42.728;23.256;2023-04-20T11:25:30;94599.13;;;14.84;56.04
57801;BME280;43627;42.728;23.256;2023-04-20T11:28:07;94586.41;;;14.75;56.88
57801;BME280;43627;42.728;23.256;2023-04-20T11:30:41;94592.63;;;15.04;55.94
57801;BME280;43627;42.728;23.256;2023-04-20T11:33:08;94591.63;;;14.96;55.70
57801;BME280;43627;42.728;23.256;2023-04-20T11:35:40;94595.88;;;15.36;56.28
57801;BME280;43627;42.728;23.256;2023-04-20T11:38:07;94584.88;;;15.25;54.89
57801;BME280;43627;42.728;23.256;2023-04-20T11:40:34;94595.88;;;15.36;54.83
57801;BME280;43627;42.728;23.256;2023-04-20T11:43:01;94595.13;;;15.19;55.35
57801;BME280;43627;42.728;23.256;2023-04-20T11:45:31;94598.38;;;15.28;53.22
57801;BME280;43627;42.728;23.256;2023-04-20T11:48:01;94592.66;;;15.09;53.68
57801;BME280;43627;42.728;23.256;2023-04-20T11:50:28;94584.66;;;14.95;54.62
57801;BME280;43627;42.728;23.256;2023-04-20T11:52:55;94590.91;;;14.90;55.03
57801;BME280;43627;42.728;23.256;2023-04-20T11:55:22;94608.59;;;14.66;55.78
57801;BME280;43627;42.728;23.256;2023-04-20T11:57:49;94595.53;;;14.39;57.86
57801;BME280;43627;42.728;23.256;2023-04-20T12:00:16;94597.13;;;13.86;59.86
57801;BME280;43627;42.728;23.256;2023-04-20T12:02:43;94613.59;;;13.86;64.21
57801;BME280;43627;42.728;23.256;2023-04-20T12:05:10;94612.44;;;13.61;66.00
57801;BME280;43627;42.728;23.256;2023-04-20T12:07:37;94599.94;;;13.49;70.24
57801;BME280;43627;42.728;23.256;2023-04-20T12:10:06;94606.97;;;13.55;69.87
57801;BME280;43627;42.728;23.256;2023-04-20T12:12:33;94591.91;;;13.39;73.37
57801;BME280;43627;42.728;23.256;2023-04-20T12:14:59;94598.75;;;13.55;74.33
57801;BME280;43627;42.728;23.256;2023-04-20T12:17:27;94593.56;;;13.68;73.10
57801;BME280;43627;42.728;23.256;2023-04-20T12:19:53;94601.16;;;14.01;71.24
57801;BME280;43627;42.728;23.256;2023-04-20T12:22:20;94600.91;;;13.94;69.80
57801;BME280;43627;42.728;23.256;2023-04-20T12:24:47;94593.16;;;13.87;72.81
57801;BME280;43627;42.728;23.256;2023-04-20T12:27:16;94589.16;;;13.88;66.51
57801;BME280;43627;42.728;23.256;2023-04-20T12:29:43;94595.22;;;14.03;67.18
57801;BME280;43627;42.728;23.256;2023-04-20T12:32:10;94583.28;;;14.17;66.40
57801;BME280;43627;42.728;23.256;2023-04-20T12:34:37;94584.06;;;14.35;66.95
57801;BME280;43627;42.728;23.256;2023-04-20T12:37:03;94587.41;;;14.61;63.61
57801;BME280;43627;42.728;23.256;2023-04-20T12:39:30;94572.19;;;14.71;63.80
57801;BME280;43627;42.728;23.256;2023-04-20T12:41:57;94577.41;;;14.86;61.18
57801;BME280;43627;42.728;23.256;2023-04-20T12:44:23;94571.94;;;15.08;57.85
57801;BME280;43627;42.728;23.256;2023-04-20T12:46:50;94558.22;;;14.92;55.67
57801;BME280;43627;42.728;23.256;2023-04-20T12:49:17;94566.19;;;14.90;57.13
57801;BME280;43627;42.728;23.256;2023-04-20T12:51:44;94562.44;;;15.26;57.28
57801;BME280;43627;42.728;23.256;2023-04-20T12:54:10;94566.38;;;15.42;60.13
57801;BME280;43627;42.728;23.256;2023-04-20T12:56:37;94566.09;;;15.62;56.91